Huvudsida
METAR-TAF:

METAR-TAF

Flygplatser :

Sardar Vallabhbhai Patel International Airport

Ahmedabad, Indien

latitud: 23-04N, longitud: 072-38E, höjd: 55 m

Aktuellt väderrapport

Denna rapport gjordes för 41 minuter sedan, klockan 09:30 UTC
Vind 10 kt från väst
Temperatur 42°C
Fuktighet 18%
Tryck 1001 hPa
Sikt: 6000 m

METAR: VAAH 200930Z 28010KT 6000 NSC 42/13 Q1001 NOSIG

Tid: 15:41 (10:11 UTC)

Väderprognos

Denna rapport gjordes för 2 timmar och 11 minuter sedan, klockan 08:00 UTC
Prognos gäller från 20 kl. 09 UTC till 20 kl. 18 UTC
Vind 10 kt från väst
Sikt: 6000 m
Blir
från 20 kl. 13 UTC till 20 kl. 15 UTC
Vind 6 kt från väst
Sikt: 4000 m
rök,

TAF: VAAH 200800Z 2009/2018 26010KT 6000 NSC BECMG 2013/2015 26006KT 4000 FU

Aktuella väderrapporter och prognoser från 4000 flygplatser (METAR- och TAF-rapporter).

De tillgängliga stationerna syns som gula och röda prickar på kartan.

För musen över prickarna för att se namnen på stationerna.

Klicka sedan för att få väderrapporter och prognoser.

För att ändra kartan: Klicka på de gröna knapparna med ett svart kors på för att zooma in; den gröna knappen med ett streck på för att zooma ut; eller på de gröna pilarna för angränsande kartor.


METAR-TAF: